Chesapeake, Ohio
Current Conditions -  °F | °C
As of 2:51 PM on Thursday 29 Jan 2015 (Local Time) from KHTS Reporting Station
Overcast Overcast  
Wind Chill: 51°   Ceiling: 4100
Heat Index: 51°   Visibility: 10mi
Dew Point: 37°   Wind: 12mph
Humidity: 59%   Direction: 230°SW
Pressure: 29.85"   Gusts: 21mph
Location:  38.43°N, 82.46°W
Report Text: KHTS 291951Z 23010G18KT 10SM OVC041 11/03 A2985 RMK AO2 SLP111 T01060028
Loading
Personal Weather Stations






























Interactive Weather Map New forecast layout! Learn more

10-Day Weather Forecast

Advertisements
Track Severe Weather on mobile